Orchard Heights, Washington
Current Conditions -  °F | °C
As of 7:35 PM on Wednesday 22 Oct 2014 (Local Time) from KPWT Reporting Station
Overcast Overcast  
Wind Chill: 54°   Ceiling: 2600
Heat Index: 54°   Visibility: 10mi
Dew Point: 54°   Wind: 9mph
Humidity: 100%   Direction: 180°S
Pressure: 29.59"   Gusts: NA
Location:  47.5378°N, 122.589°W
Report Text: KPWT 230235Z AUTO 18008KT 10SM FEW005 FEW012 OVC026 12/12 A2959 RMK AO1 P0007
Loading
Personal Weather Stations






























Interactive Weather Map
Tropical Storm Tracking
New forecast layout! Learn more

10-Day Weather Forecast

Advertisements
Track Severe Weather on mobile